createdAt,value
2023-01-08T00:02:26.355Z,9.66
2023-01-08T00:04:55.897Z,9.65
2023-01-08T00:07:25.470Z,9.65
2023-01-08T00:09:55.142Z,9.65
2023-01-08T00:12:24.727Z,9.67
2023-01-08T00:14:54.367Z,9.64
2023-01-08T00:17:26.562Z,9.64
2023-01-08T00:19:56.134Z,9.63
2023-01-08T00:22:25.709Z,9.63
2023-01-08T00:24:55.262Z,9.61
2023-01-08T00:27:24.865Z,9.57
2023-01-08T00:29:54.500Z,9.51
2023-01-08T00:32:26.867Z,9.43
2023-01-08T00:34:57.160Z,9.37
2023-01-08T00:37:26.847Z,9.34
2023-01-08T00:39:56.467Z,9.34
2023-01-08T00:42:26.106Z,9.32
2023-01-08T00:44:55.698Z,9.32
2023-01-08T00:47:27.879Z,9.31
2023-01-08T00:49:57.472Z,9.34
2023-01-08T00:52:27.031Z,9.32
2023-01-08T00:54:56.622Z,9.33
2023-01-08T00:57:26.298Z,9.35
2023-01-08T00:59:55.917Z,9.38
2023-01-08T01:02:28.079Z,9.39
2023-01-08T01:04:57.698Z,9.40
2023-01-08T01:07:27.326Z,9.40
2023-01-08T01:09:56.916Z,9.41
2023-01-08T01:12:26.516Z,9.41
2023-01-08T01:14:56.079Z,9.41
2023-01-08T01:17:28.393Z,9.43
2023-01-08T01:19:57.994Z,9.44
2023-01-08T01:22:27.637Z,9.47
2023-01-08T01:24:57.208Z,9.49
2023-01-08T01:27:27.782Z,9.51
2023-01-08T01:29:57.398Z,9.53
2023-01-08T01:32:29.597Z,9.54
2023-01-08T01:34:59.191Z,9.55
2023-01-08T01:37:28.839Z,9.55
2023-01-08T01:39:58.898Z,9.54
2023-01-08T01:42:44.348Z,9.54
2023-01-08T01:45:21.198Z,9.53
2023-01-08T01:47:57.620Z,9.52
2023-01-08T01:50:31.348Z,9.49
2023-01-08T01:53:04.876Z,9.50
2023-01-08T01:55:35.158Z,9.48
2023-01-08T01:58:09.261Z,9.49
2023-01-08T02:00:38.999Z,9.50
2023-01-08T02:03:12.175Z,9.52
2023-01-08T02:05:48.366Z,9.52
2023-01-08T02:08:23.184Z,9.49
2023-01-08T02:10:56.729Z,9.43
2023-01-08T02:13:30.120Z,9.39
2023-01-08T02:16:01.849Z,9.32
2023-01-08T02:18:37.860Z,9.27
2023-01-08T02:21:12.155Z,9.22
2023-01-08T02:23:47.445Z,9.18
2023-01-08T02:26:25.418Z,9.14
2023-01-08T02:29:00.489Z,9.10
2023-01-08T02:31:31.965Z,9.09
2023-01-08T02:34:02.191Z,9.06
2023-01-08T02:36:39.008Z,9.04
2023-01-08T02:39:27.019Z,9.02
2023-01-08T02:42:08.392Z,8.99
2023-01-08T02:44:45.254Z,8.96
2023-01-08T02:47:20.586Z,8.92
2023-01-08T02:49:50.715Z,8.88
2023-01-08T02:52:20.491Z,8.84
2023-01-08T02:54:51.127Z,8.79
2023-01-08T02:57:23.599Z,8.76
2023-01-08T02:59:53.763Z,8.72
2023-01-08T03:02:23.573Z,8.68
2023-01-08T03:04:58.030Z,8.63
2023-01-08T03:07:27.669Z,8.60
2023-01-08T03:09:57.920Z,8.58
2023-01-08T03:12:35.901Z,8.58
2023-01-08T03:15:10.562Z,8.57
2023-01-08T03:17:42.870Z,8.56
2023-01-08T03:20:15.238Z,8.55
2023-01-08T03:22:47.090Z,8.54
2023-01-08T03:25:17.717Z,8.54
2023-01-08T03:27:54.178Z,8.55
2023-01-08T03:30:24.903Z,8.56
2023-01-08T03:32:55.379Z,8.56
2023-01-08T03:35:26.729Z,8.57
2023-01-08T03:37:59.972Z,8.59
2023-01-08T03:40:32.694Z,8.60
2023-01-08T03:43:04.959Z,8.60
2023-01-08T03:45:35.164Z,8.60
2023-01-08T03:48:05.963Z,8.59
2023-01-08T03:50:35.759Z,8.61
2023-01-08T03:53:05.358Z,8.61
2023-01-08T03:55:34.953Z,8.60
2023-01-08T03:58:07.580Z,8.60
2023-01-08T04:00:37.364Z,8.61
2023-01-08T04:03:06.981Z,8.61
2023-01-08T04:05:36.545Z,8.62
2023-01-08T04:08:06.300Z,8.60
2023-01-08T04:10:35.918Z,8.58
2023-01-08T04:13:08.060Z,8.56
2023-01-08T04:15:37.767Z,8.54
2023-01-08T04:18:07.485Z,8.52
2023-01-08T04:20:37.069Z,8.49
2023-01-08T04:23:06.722Z,8.47
2023-01-08T04:25:36.406Z,8.45
2023-01-08T04:28:08.596Z,8.44
2023-01-08T04:30:38.283Z,8.41
2023-01-08T04:33:07.937Z,8.40
2023-01-08T04:35:37.713Z,8.39
2023-01-08T04:38:07.697Z,8.37
2023-01-08T04:40:37.829Z,8.39
2023-01-08T04:43:10.133Z,8.38
2023-01-08T04:45:39.854Z,8.38
2023-01-08T04:48:10.141Z,8.36
2023-01-08T04:50:39.892Z,8.37
2023-01-08T04:53:09.558Z,8.37
2023-01-08T04:55:39.868Z,8.36
2023-01-08T04:58:12.204Z,8.34
2023-01-08T05:00:42.386Z,8.35
2023-01-08T05:03:12.233Z,8.33
2023-01-08T05:05:42.630Z,8.34
2023-01-08T05:08:12.249Z,8.34
2023-01-08T05:10:41.868Z,8.35
2023-01-08T05:13:14.015Z,8.35
2023-01-08T05:15:43.811Z,8.37
2023-01-08T05:18:13.403Z,8.39
2023-01-08T05:20:42.979Z,8.40
2023-01-08T05:23:12.594Z,8.41
2023-01-08T05:25:42.198Z,8.42
2023-01-08T05:28:14.342Z,8.42
2023-01-08T05:30:43.975Z,8.43
2023-01-08T05:33:13.567Z,8.44
2023-01-08T05:35:43.204Z,8.48
2023-01-08T05:38:12.798Z,8.48
2023-01-08T05:40:42.387Z,8.49
2023-01-08T05:43:14.571Z,8.48
2023-01-08T05:45:44.154Z,8.45
2023-01-08T05:48:13.713Z,8.39
2023-01-08T05:50:43.902Z,8.34
2023-01-08T05:53:13.496Z,8.27
2023-01-08T05:55:43.095Z,8.22
2023-01-08T05:58:18.988Z,8.17
2023-01-08T06:00:48.899Z,8.13
2023-01-08T06:03:18.509Z,8.09
2023-01-08T06:05:48.096Z,8.07
2023-01-08T06:08:17.960Z,8.02
2023-01-08T06:10:47.579Z,7.99
2023-01-08T06:13:19.728Z,7.93
2023-01-08T06:15:49.366Z,7.92
2023-01-08T06:18:19.057Z,7.97
2023-01-08T06:20:48.829Z,8.02
2023-01-08T06:23:18.415Z,8.02
2023-01-08T06:25:48.116Z,8.00
2023-01-08T06:28:20.307Z,7.99
2023-01-08T06:30:49.956Z,8.00
2023-01-08T06:33:21.379Z,8.03
2023-01-08T06:35:51.326Z,8.07
2023-01-08T06:38:21.816Z,8.13
2023-01-08T06:40:51.427Z,8.19
2023-01-08T06:43:24.130Z,8.23
2023-01-08T06:45:58.418Z,8.28
2023-01-08T06:48:28.315Z,8.33
2023-01-08T06:50:57.922Z,8.37
2023-01-08T06:53:27.587Z,8.41
2023-01-08T06:55:58.912Z,8.44
2023-01-08T06:58:31.229Z,8.48
2023-01-08T07:01:01.158Z,8.49
2023-01-08T07:03:30.901Z,8.48
2023-01-08T07:06:00.571Z,8.47
2023-01-08T07:08:30.176Z,8.44
2023-01-08T07:10:59.794Z,8.38
2023-01-08T07:13:32.101Z,8.27
2023-01-08T07:16:01.762Z,8.17
2023-01-08T07:18:31.383Z,8.05
2023-01-08T07:21:00.954Z,7.95
2023-01-08T07:23:30.541Z,7.86
2023-01-08T07:26:03.189Z,7.79
2023-01-08T07:28:35.476Z,7.72
2023-01-08T07:31:09.027Z,7.67
2023-01-08T07:33:38.760Z,7.63
2023-01-08T07:36:09.634Z,7.59
2023-01-08T07:38:39.216Z,7.56
2023-01-08T07:41:08.803Z,7.54
2023-01-08T07:43:40.965Z,7.53
2023-01-08T07:46:10.643Z,7.50
2023-01-08T07:48:40.255Z,7.47
2023-01-08T07:51:11.505Z,7.46
2023-01-08T07:53:41.565Z,7.45
2023-01-08T07:56:12.229Z,7.45
2023-01-08T07:58:44.803Z,7.43
2023-01-08T08:01:14.918Z,7.43
2023-01-08T08:03:44.688Z,7.43
2023-01-08T08:06:14.311Z,7.43
2023-01-08T08:08:43.908Z,7.44
2023-01-08T08:11:13.609Z,7.44
2023-01-08T08:13:47.496Z,7.44
2023-01-08T08:16:17.201Z,7.45
2023-01-08T08:18:47.185Z,7.47
2023-01-08T08:21:16.821Z,7.48
2023-01-08T08:23:46.382Z,7.48
2023-01-08T08:26:15.960Z,7.50
2023-01-08T08:28:48.111Z,7.50
2023-01-08T08:31:17.786Z,7.51
2023-01-08T08:33:47.443Z,7.52
2023-01-08T08:36:17.019Z,7.50
2023-01-08T08:38:46.582Z,7.52
2023-01-08T08:41:16.212Z,7.54
2023-01-08T08:43:50.107Z,7.56
2023-01-08T08:46:19.814Z,7.57
2023-01-08T08:48:49.429Z,7.60
2023-01-08T08:51:19.042Z,7.63
2023-01-08T08:53:48.618Z,7.62
2023-01-08T08:56:18.362Z,7.57
2023-01-08T08:58:51.872Z,7.50
2023-01-08T09:01:21.544Z,7.42
2023-01-08T09:03:51.266Z,7.35
2023-01-08T09:06:20.885Z,7.31
2023-01-08T09:08:50.464Z,7.26
2023-01-08T09:11:20.051Z,7.22
2023-01-08T09:13:52.261Z,7.18
2023-01-08T09:16:21.867Z,7.16
2023-01-08T09:18:51.771Z,7.13
2023-01-08T09:21:21.358Z,7.14
2023-01-08T09:23:51.178Z,7.22
2023-01-08T09:26:20.756Z,7.32
2023-01-08T09:28:52.945Z,7.43
2023-01-08T09:31:22.864Z,7.51
2023-01-08T09:33:52.703Z,7.58
2023-01-08T09:36:22.565Z,7.65
2023-01-08T09:38:52.127Z,7.73
2023-01-08T09:41:24.504Z,7.83
2023-01-08T09:43:58.127Z,7.90
2023-01-08T09:46:30.011Z,8.00
2023-01-08T09:49:02.792Z,8.10
2023-01-08T09:51:36.617Z,8.20
2023-01-08T09:54:07.642Z,8.32
2023-01-08T09:56:37.868Z,8.84
2023-01-08T09:59:10.192Z,9.81
2023-01-08T10:01:41.175Z,10.78
2023-01-08T10:04:17.742Z,11.60
2023-01-08T10:06:53.689Z,12.19
2023-01-08T10:09:27.274Z,12.55
2023-01-08T10:11:58.721Z,12.73
2023-01-08T10:14:33.473Z,12.68
2023-01-08T10:17:11.387Z,12.34
2023-01-08T10:19:41.508Z,12.08
2023-01-08T10:22:16.455Z,11.83
2023-01-08T10:24:46.009Z,11.56
2023-01-08T10:27:16.974Z,11.31
2023-01-08T10:29:49.447Z,11.07
2023-01-08T10:32:20.367Z,10.80
2023-01-08T10:34:52.170Z,10.58
2023-01-08T10:37:30.430Z,10.50
2023-01-08T10:40:08.887Z,10.54
2023-01-08T10:42:39.346Z,10.50
2023-01-08T10:45:17.676Z,10.36
2023-01-08T10:47:49.357Z,10.22
2023-01-08T10:50:24.268Z,10.07
2023-01-08T10:52:58.169Z,10.04
2023-01-08T10:55:29.653Z,10.06
2023-01-08T10:58:00.683Z,10.18
2023-01-08T11:00:35.274Z,10.32
2023-01-08T11:03:06.506Z,10.45
2023-01-08T11:05:37.791Z,10.55
2023-01-08T11:08:09.949Z,10.68
2023-01-08T11:10:39.992Z,10.80
2023-01-08T11:13:10.985Z,10.77
2023-01-08T11:15:44.057Z,10.71
2023-01-08T11:18:19.993Z,10.64
2023-01-08T11:20:50.578Z,10.61
2023-01-08T11:23:22.717Z,10.57
2023-01-08T11:25:57.322Z,10.59
2023-01-08T11:28:33.325Z,10.63
2023-01-08T11:31:16.329Z,10.68
2023-01-08T11:33:47.717Z,10.74
2023-01-08T11:36:24.868Z,10.74
2023-01-08T11:38:54.460Z,10.73
2023-01-08T11:41:33.287Z,10.74
2023-01-08T11:44:17.468Z,10.71
2023-01-08T11:46:55.887Z,10.71
2023-01-08T11:49:37.828Z,10.67
2023-01-08T11:52:18.251Z,10.64
2023-01-08T11:55:05.221Z,10.70
2023-01-08T11:57:43.813Z,10.77
2023-01-08T12:00:24.427Z,10.83
2023-01-08T12:02:58.294Z,10.84
2023-01-08T12:05:31.295Z,10.84
2023-01-08T12:08:06.968Z,10.81
2023-01-08T12:11:02.257Z,10.79
2023-01-08T12:13:42.642Z,10.76
2023-01-08T12:16:22.053Z,10.74
2023-01-08T12:19:05.118Z,10.74
2023-01-08T12:21:35.972Z,10.70
2023-01-08T12:24:22.637Z,10.67
2023-01-08T12:27:01.233Z,10.68
2023-01-08T12:29:48.221Z,10.71
2023-01-08T12:32:32.106Z,10.75
2023-01-08T12:35:11.581Z,10.76
2023-01-08T12:37:45.458Z,10.78
2023-01-08T12:40:18.606Z,10.81
2023-01-08T12:42:59.978Z,10.82
2023-01-08T12:45:32.852Z,10.81
2023-01-08T12:48:07.611Z,10.84
2023-01-08T12:50:46.338Z,10.90
2023-01-08T12:53:22.891Z,10.96
2023-01-08T12:55:58.239Z,10.95
2023-01-08T12:58:33.148Z,10.95
2023-01-08T13:01:11.904Z,10.97
2023-01-08T13:03:41.849Z,10.95
2023-01-08T13:06:16.270Z,10.90
2023-01-08T13:08:49.123Z,10.83
2023-01-08T13:11:28.011Z,10.77
2023-01-08T13:14:08.698Z,10.69
2023-01-08T13:16:41.009Z,10.60
2023-01-08T13:19:26.079Z,10.57
2023-01-08T13:21:59.911Z,10.56
2023-01-08T13:24:34.380Z,10.52
2023-01-08T13:27:23.325Z,10.49
2023-01-08T13:29:54.294Z,10.52
2023-01-08T13:32:40.234Z,10.52
2023-01-08T13:35:23.924Z,10.55
2023-01-08T13:38:08.946Z,10.54
2023-01-08T13:40:40.027Z,10.43
2023-01-08T13:43:15.518Z,10.27
2023-01-08T13:45:45.772Z,10.21
2023-01-08T13:48:24.371Z,10.22
2023-01-08T13:50:54.268Z,10.25
2023-01-08T13:53:26.934Z,10.27
2023-01-08T13:55:59.618Z,10.24
2023-01-08T13:58:31.632Z,10.16
2023-01-08T14:01:02.803Z,10.09
2023-01-08T14:03:35.792Z,10.05
2023-01-08T14:06:10.388Z,10.02
2023-01-08T14:08:52.607Z,9.99
2023-01-08T14:11:24.198Z,10.04
2023-01-08T14:13:54.073Z,10.14
2023-01-08T14:16:24.102Z,10.23
2023-01-08T14:18:54.066Z,10.31
2023-01-08T14:21:24.824Z,10.36
2023-01-08T14:23:57.126Z,10.36
2023-01-08T14:26:32.075Z,10.29
2023-01-08T14:29:02.334Z,10.23
2023-01-08T14:31:32.483Z,10.17
2023-01-08T14:34:03.008Z,10.11
2023-01-08T14:36:32.619Z,10.02
2023-01-08T14:39:04.785Z,9.91
2023-01-08T14:41:50.218Z,9.76
2023-01-08T14:44:25.981Z,9.57
2023-01-08T14:46:58.927Z,9.42
2023-01-08T14:49:31.222Z,9.32
2023-01-08T14:52:02.344Z,9.29
2023-01-08T14:54:36.010Z,9.29
2023-01-08T14:57:06.122Z,9.27
2023-01-08T14:59:37.852Z,9.28
2023-01-08T15:02:10.420Z,9.31
2023-01-08T15:04:40.098Z,9.35
2023-01-08T15:07:11.796Z,9.34
2023-01-08T15:09:43.983Z,9.34
2023-01-08T15:12:27.058Z,9.35
2023-01-08T15:14:58.099Z,9.34
2023-01-08T15:17:31.381Z,9.34
2023-01-08T15:20:01.998Z,9.34
2023-01-08T15:22:33.366Z,9.36
2023-01-08T15:25:07.673Z,9.36
2023-01-08T15:27:37.794Z,9.36
2023-01-08T15:30:10.037Z,9.34
2023-01-08T15:32:40.482Z,9.27
2023-01-08T15:35:17.094Z,9.25
2023-01-08T15:37:46.729Z,9.23
2023-01-08T15:40:18.958Z,9.22
2023-01-08T15:43:01.039Z,9.18
2023-01-08T15:45:32.721Z,9.11
2023-01-08T15:48:02.790Z,8.97
2023-01-08T15:50:36.572Z,8.88
2023-01-08T15:53:08.046Z,8.85
2023-01-08T15:55:43.445Z,8.87
2023-01-08T15:58:14.370Z,8.92
2023-01-08T16:00:45.024Z,8.95
2023-01-08T16:03:15.164Z,8.97
2023-01-08T16:05:44.977Z,9.01
2023-01-08T16:08:14.793Z,9.03
2023-01-08T16:10:46.935Z,9.06
2023-01-08T16:13:16.535Z,9.07
2023-01-08T16:15:46.116Z,9.08
2023-01-08T16:18:15.691Z,9.03
2023-01-08T16:20:45.277Z,8.91
2023-01-08T16:23:14.879Z,8.77
2023-01-08T16:25:47.044Z,8.63
2023-01-08T16:28:16.650Z,8.52
2023-01-08T16:30:46.220Z,8.42
2023-01-08T16:33:15.815Z,8.32
2023-01-08T16:35:45.405Z,8.24
2023-01-08T16:38:15.752Z,8.19
2023-01-08T16:40:47.987Z,8.14
2023-01-08T16:43:17.727Z,8.07
2023-01-08T16:45:48.905Z,7.98
2023-01-08T16:48:18.719Z,7.91
2023-01-08T16:50:48.508Z,7.87
2023-01-08T16:53:19.354Z,7.90
2023-01-08T16:55:51.478Z,7.98
2023-01-08T16:58:21.307Z,8.06
2023-01-08T17:00:51.029Z,8.14
2023-01-08T17:03:20.792Z,8.19
2023-01-08T17:05:50.557Z,8.23
2023-01-08T17:08:20.684Z,8.26
2023-01-08T17:10:52.838Z,8.25
2023-01-08T17:13:22.439Z,8.24
2023-01-08T17:15:53.183Z,8.18
2023-01-08T17:18:22.901Z,8.06
2023-01-08T17:20:55.933Z,7.91
2023-01-08T17:23:28.705Z,7.79
2023-01-08T17:26:04.159Z,7.66
2023-01-08T17:28:35.082Z,7.55
2023-01-08T17:31:05.823Z,7.51
2023-01-08T17:33:37.729Z,7.49
2023-01-08T17:36:13.433Z,7.48
2023-01-08T17:38:43.251Z,7.49
2023-01-08T17:41:36.898Z,7.48
2023-01-08T17:44:07.356Z,7.43
2023-01-08T17:46:38.048Z,7.35
2023-01-08T17:49:08.841Z,7.27
2023-01-08T17:51:38.789Z,7.18
2023-01-08T17:54:08.719Z,7.10
2023-01-08T17:56:41.174Z,7.08
2023-01-08T17:59:10.911Z,7.09
2023-01-08T18:01:40.639Z,7.11
2023-01-08T18:04:10.265Z,7.16
2023-01-08T18:06:39.892Z,7.23
2023-01-08T18:09:09.979Z,7.32
2023-01-08T18:11:42.361Z,7.39
2023-01-08T18:14:13.529Z,7.45
2023-01-08T18:16:45.563Z,7.52
2023-01-08T18:19:16.794Z,7.59
2023-01-08T18:21:46.522Z,7.59
2023-01-08T18:24:16.479Z,7.58
2023-01-08T18:26:48.799Z,7.57
2023-01-08T18:29:18.475Z,7.56
2023-01-08T18:31:48.093Z,7.53
2023-01-08T18:34:17.682Z,7.48
2023-01-08T18:36:48.333Z,7.44
2023-01-08T18:39:18.020Z,7.40
2023-01-08T18:42:02.663Z,7.39
2023-01-08T18:44:32.641Z,7.40
2023-01-08T18:47:02.237Z,7.40
2023-01-08T18:49:31.808Z,7.42
2023-01-08T18:52:01.376Z,7.42
2023-01-08T18:54:30.933Z,7.45
2023-01-08T18:57:03.229Z,7.50
2023-01-08T18:59:32.804Z,7.57
2023-01-08T19:02:02.579Z,7.65
2023-01-08T19:04:32.390Z,7.70
2023-01-08T19:07:02.042Z,7.75
2023-01-08T19:09:31.643Z,7.76
2023-01-08T19:12:03.840Z,7.77
2023-01-08T19:14:33.644Z,7.80
2023-01-08T19:17:03.292Z,7.83
2023-01-08T19:19:32.901Z,7.86
2023-01-08T19:22:02.522Z,7.86
2023-01-08T19:24:32.162Z,7.88
2023-01-08T19:27:04.384Z,7.91
2023-01-08T19:29:33.957Z,7.94
2023-01-08T19:32:03.596Z,7.96
2023-01-08T19:34:33.637Z,7.98
2023-01-08T19:37:03.280Z,7.99
2023-01-08T19:39:33.003Z,8.01
2023-01-08T19:42:17.678Z,8.02
2023-01-08T19:44:47.762Z,8.03
2023-01-08T19:47:17.395Z,8.04
2023-01-08T19:49:49.026Z,8.03
2023-01-08T19:52:19.872Z,8.04
2023-01-08T19:54:49.717Z,8.04
2023-01-08T19:57:21.931Z,7.99
2023-01-08T19:59:51.723Z,7.94
2023-01-08T20:02:21.873Z,7.83
2023-01-08T20:04:51.930Z,7.72
2023-01-08T20:07:21.671Z,7.62
2023-01-08T20:09:51.255Z,7.52
2023-01-08T20:12:23.485Z,7.44
2023-01-08T20:14:53.102Z,7.37
2023-01-08T20:17:25.260Z,7.32
2023-01-08T20:19:55.363Z,7.25
2023-01-08T20:22:25.310Z,7.20
2023-01-08T20:24:56.979Z,7.15
2023-01-08T20:27:29.869Z,7.13
2023-01-08T20:30:00.848Z,7.14
2023-01-08T20:32:30.623Z,7.20
2023-01-08T20:35:00.336Z,7.26
2023-01-08T20:37:30.007Z,7.33
2023-01-08T20:39:59.590Z,7.40
2023-01-08T20:42:34.147Z,7.50
2023-01-08T20:45:04.437Z,7.59
2023-01-08T20:47:34.591Z,7.67
2023-01-08T20:50:12.345Z,7.75
2023-01-08T20:52:48.471Z,7.80
2023-01-08T20:55:18.745Z,7.84
2023-01-08T20:57:51.029Z,7.89
2023-01-08T21:00:22.143Z,7.93
2023-01-08T21:02:51.853Z,7.97
2023-01-08T21:05:21.499Z,8.02
2023-01-08T21:07:51.274Z,8.05
2023-01-08T21:10:21.182Z,8.08
2023-01-08T21:12:53.739Z,8.11
2023-01-08T21:15:24.271Z,8.15
2023-01-08T21:17:54.383Z,8.19
2023-01-08T21:20:24.122Z,8.20
2023-01-08T21:22:54.053Z,8.23
2023-01-08T21:25:23.664Z,8.25
2023-01-08T21:27:55.879Z,8.26
2023-01-08T21:30:25.439Z,8.27
2023-01-08T21:32:56.319Z,8.27
2023-01-08T21:35:26.720Z,8.28
2023-01-08T21:37:56.335Z,8.27
2023-01-08T21:40:25.966Z,8.29
2023-01-08T21:43:10.664Z,8.27
2023-01-08T21:45:40.318Z,8.27
2023-01-08T21:48:09.980Z,8.26
2023-01-08T21:50:39.646Z,8.27
2023-01-08T21:53:21.703Z,8.25
2023-01-08T21:55:51.860Z,8.25
2023-01-08T21:58:24.475Z,8.25
2023-01-08T22:00:54.144Z,8.26
2023-01-08T22:03:24.881Z,8.26
2023-01-08T22:06:01.737Z,8.27
2023-01-08T22:08:32.154Z,8.25
2023-01-08T22:11:02.119Z,8.24
2023-01-08T22:13:34.334Z,8.24
2023-01-08T22:16:05.272Z,8.25
2023-01-08T22:18:34.967Z,8.24
2023-01-08T22:21:05.161Z,8.24
2023-01-08T22:23:34.834Z,8.23
2023-01-08T22:26:07.103Z,8.24
2023-01-08T22:28:39.522Z,8.21
2023-01-08T22:31:10.623Z,8.16
2023-01-08T22:33:40.918Z,8.09
2023-01-08T22:36:13.637Z,7.99
2023-01-08T22:38:43.320Z,7.86
2023-01-08T22:41:18.681Z,7.73
2023-01-08T22:43:51.066Z,7.60
2023-01-08T22:46:20.678Z,7.49
2023-01-08T22:48:50.277Z,7.41
2023-01-08T22:51:19.899Z,7.34
2023-01-08T22:53:49.548Z,7.28
2023-01-08T22:56:19.246Z,7.25
2023-01-08T22:58:51.617Z,7.22
2023-01-08T23:01:23.907Z,7.19
2023-01-08T23:03:54.100Z,7.16
2023-01-08T23:06:25.991Z,7.13
2023-01-08T23:08:55.785Z,7.12
2023-01-08T23:11:26.591Z,7.10
2023-01-08T23:13:59.079Z,7.07
2023-01-08T23:16:28.772Z,7.04
2023-01-08T23:18:59.260Z,7.03
2023-01-08T23:21:29.458Z,7.00
2023-01-08T23:23:59.276Z,7.00
2023-01-08T23:26:31.387Z,7.01
2023-01-08T23:29:03.587Z,7.02
2023-01-08T23:31:37.592Z,7.00
2023-01-08T23:34:07.346Z,7.00
2023-01-08T23:36:37.263Z,6.98
2023-01-08T23:39:07.385Z,6.97
2023-01-08T23:41:36.952Z,6.94
2023-01-08T23:44:10.555Z,6.93
2023-01-08T23:46:40.179Z,6.93
2023-01-08T23:49:10.092Z,6.92
2023-01-08T23:51:42.268Z,6.92
2023-01-08T23:54:12.501Z,6.90
2023-01-08T23:56:43.953Z,6.88
2023-01-08T23:59:16.316Z,6.86
